Time;durP1;ratioP1;P1;durP2;ratioP2;P2;SDS_P1;SDS_P2;PMS_P1;PMS_P2;Temp;Humidity;BMP_temperature;BMP_pressure;BME280_temperature;BME280_humidity;BME280_pressure;Samples;Min_cycle;Max_cycle;Signal;HPM_P1;HPM_P2
2022/12/14 00:01:44;;;;;;;32.20;14.63;;;;;;;-2.68;100.00;100578.50;2614466;36;20034;-54
2022/12/14 00:04:12;;;;;;;33.05;14.80;;;;;;;-2.66;100.00;100562.63;2613238;31;20034;-55
2022/12/14 00:06:40;;;;;;;32.50;14.85;;;;;;;-2.62;100.00;100556.31;2609582;36;20034;-52
2022/12/14 00:09:09;;;;;;;34.58;16.52;;;;;;;-2.68;100.00;100564.44;2611116;36;20614;-53
2022/12/14 00:11:37;;;;;;;29.75;14.65;;;;;;;-2.73;100.00;100569.03;2614929;36;20046;-51
2022/12/14 00:14:11;;;;;;;31.75;14.18;;;;;;;-2.76;100.00;100562.09;2613776;36;20940;-56
2022/12/14 00:16:39;;;;;;;31.75;14.43;;;;;;;-2.78;100.00;100565.72;2614246;36;20030;-57
2022/12/14 00:19:08;;;;;;;27.30;14.07;;;;;;;-2.87;100.00;100562.53;2614296;31;20551;-49
2022/12/14 00:21:36;;;;;;;32.33;13.88;;;;;;;-2.78;100.00;100576.25;2615070;31;20026;-54
2022/12/14 00:24:05;;;;;;;31.77;15.13;;;;;;;-2.75;100.00;100570.84;2612754;36;20030;-53
2022/12/14 00:26:34;;;;;;;30.13;14.48;;;;;;;-2.70;100.00;100561.03;2613736;36;20030;-52
2022/12/14 00:29:03;;;;;;;24.13;13.55;;;;;;;-2.75;100.00;100569.09;2614557;36;20039;-52
2022/12/14 00:31:35;;;;;;;28.90;14.05;;;;;;;-2.62;100.00;100566.88;2614265;36;20045;-57
2022/12/14 00:34:03;;;;;;;26.63;13.73;;;;;;;-2.70;100.00;100563.66;2614909;36;20034;-51
2022/12/14 00:36:32;;;;;;;29.83;14.43;;;;;;;-2.74;100.00;100562.06;2614726;31;20041;-52
2022/12/14 00:39:01;;;;;;;28.55;13.45;;;;;;;-2.87;100.00;100557.25;2614002;36;20146;-51
2022/12/14 00:41:29;;;;;;;29.90;14.15;;;;;;;-2.78;100.00;100563.97;2612704;36;20110;-54
2022/12/14 00:43:58;;;;;;;27.67;14.07;;;;;;;-2.86;100.00;100566.84;2610902;36;20038;-50
2022/12/14 00:46:26;;;;;;;28.88;14.95;;;;;;;-2.90;100.00;100562.66;2614251;31;20037;-51
2022/12/14 00:48:57;;;;;;;27.40;13.60;;;;;;;-2.96;100.00;100554.94;2614096;36;20039;-52
2022/12/14 00:51:25;;;;;;;27.02;13.57;;;;;;;-2.89;100.00;100545.06;2614056;36;20519;-52
2022/12/14 00:53:54;;;;;;;28.70;14.27;;;;;;;-2.92;100.00;100551.28;2614670;36;20042;-48
2022/12/14 00:56:22;;;;;;;26.52;14.25;;;;;;;-3.05;100.00;100545.66;2614126;36;20575;-50
2022/12/14 00:58:54;;;;;;;28.90;15.07;;;;;;;-3.12;100.00;100535.38;2615444;31;20034;-58
2022/12/14 01:01:22;;;;;;;26.42;13.48;;;;;;;-3.15;100.00;100538.13;2615662;36;20041;-52
2022/12/14 01:04:15;;;;;;;31.88;14.63;;;;;;;-3.00;100.00;100534.94;2615374;36;20614;-51
2022/12/14 01:06:42;;;;;;;26.97;14.57;;;;;;;-3.13;100.00;100523.16;2614273;36;20045;-54
2022/12/14 01:09:10;;;;;;;29.45;15.27;;;;;;;-3.20;100.00;100525.13;2616349;31;20446;-52
2022/12/14 01:11:39;;;;;;;33.47;15.23;;;;;;;-3.21;100.00;100521.66;2615259;36;20030;-53
2022/12/14 01:14:08;;;;;;;27.13;13.93;;;;;;;-3.26;100.00;100515.69;2615744;36;20042;-54
2022/12/14 01:16:36;;;;;;;29.30;16.15;;;;;;;-3.33;100.00;100515.97;2615692;36;20287;-49
2022/12/14 01:19:05;;;;;;;30.02;14.82;;;;;;;-3.40;100.00;100520.59;2616275;36;20041;-52
2022/12/14 01:21:34;;;;;;;32.70;15.73;;;;;;;-3.50;100.00;100519.22;2615933;36;20578;-55
2022/12/14 01:24:07;;;;;;;31.42;15.52;;;;;;;-3.53;100.00;100515.78;2616513;36;20030;-55
2022/12/14 01:26:41;;;;;;;32.85;15.13;;;;;;;-3.64;100.00;100517.09;2615572;36;20424;-53
2022/12/14 01:29:10;;;;;;;31.15;14.80;;;;;;;-3.65;100.00;100510.09;2616031;36;20027;-55
2022/12/14 01:31:39;;;;;;;31.75;15.93;;;;;;;-3.69;100.00;100509.34;2615791;36;20563;-53
2022/12/14 01:34:07;;;;;;;32.20;14.90;;;;;;;-3.78;100.00;100504.44;2616553;36;20112;-54
2022/12/14 01:36:37;;;;;;;32.15;15.27;;;;;;;-3.89;100.00;100505.66;2616032;36;20023;-56
2022/12/14 01:39:12;;;;;;;29.42;14.27;;;;;;;-3.91;100.00;100499.59;2615415;36;20038;-51
2022/12/14 01:41:42;;;;;;;32.30;15.25;;;;;;;-4.05;100.00;100501.81;2614791;36;20069;-55
2022/12/14 01:44:40;;;;;;;32.15;15.73;;;;;;;-4.08;100.00;100502.81;2616067;36;20560;-53
2022/12/14 01:47:17;;;;;;;34.63;17.40;;;;;;;-4.16;100.00;100504.81;2615732;36;20443;-50
2022/12/14 01:49:50;;;;;;;33.22;16.73;;;;;;;-4.18;100.00;100500.50;2615099;36;20031;-55
2022/12/14 01:52:24;;;;;;;35.05;17.27;;;;;;;-4.20;100.00;100503.19;2615937;31;20067;-54
2022/12/14 01:55:00;;;;;;;34.78;16.67;;;;;;;-4.31;100.00;100510.59;2615763;36;20054;-52
2022/12/14 01:57:34;;;;;;;31.50;17.27;;;;;;;-4.26;100.00;100503.41;2614592;31;20057;-57
2022/12/14 02:00:03;;;;;;;35.30;17.05;;;;;;;-4.39;100.00;100497.69;2614759;36;20042;-50
2022/12/14 02:02:32;;;;;;;34.58;16.88;;;;;;;-4.37;100.00;100495.88;2614911;31;20058;-51
2022/12/14 02:05:02;;;;;;;;;;;;;;;-4.42;100.00;100505.66;2615605;31;20026;-54
2022/12/14 02:07:31;;;;;;;34.05;17.33;;;;;;;-4.41;100.00;100494.25;2614940;31;19939;-53
2022/12/14 02:10:04;;;;;;;;;;;;;;;-4.44;100.00;100495.22;2613680;36;20487;-53
2022/12/14 02:12:36;;;;;;;31.75;16.77;;;;;;;-4.49;100.00;100491.88;2612993;36;19981;-57
2022/12/14 02:15:05;;;;;;;34.92;17.33;;;;;;;-4.52;100.00;100486.72;2611869;36;20030;-56
2022/12/14 02:17:33;;;;;;;39.45;18.55;;;;;;;-4.55;100.00;100480.69;2608783;36;20034;-56
2022/12/14 02:20:03;;;;;;;33.47;18.55;;;;;;;-4.75;100.00;100484.84;2613720;36;20418;-52
2022/12/14 02:22:54;;;;;;;36.28;18.73;;;;;;;-4.83;100.00;100484.19;2613578;36;20034;-54
2022/12/14 02:25:46;;;;;;;34.47;16.73;;;;;;;-4.93;100.00;100486.28;2615029;36;20077;-53
2022/12/14 02:28:39;;;;;;;33.50;17.38;;;;;;;-4.90;100.00;100474.78;2615024;36;20034;-54
2022/12/14 02:31:17;;;;;;;39.53;18.92;;;;;;;-4.90;100.00;100485.28;2614359;36;20446;-54
2022/12/14 02:33:55;;;;;;;36.20;18.98;;;;;;;-4.91;100.00;100475.72;2615067;31;20026;-52
2022/12/14 02:36:32;;;;;;;38.97;19.30;;;;;;;-4.86;100.00;100477.28;2614100;31;20045;-48
2022/12/14 02:39:11;;;;;;;35.47;19.13;;;;;;;-4.89;100.00;100471.28;2614398;36;20054;-53
2022/12/14 02:41:46;;;;;;;35.42;19.02;;;;;;;-4.94;100.00;100459.13;2612003;36;20030;-53
2022/12/14 02:44:28;;;;;;;38.35;19.98;;;;;;;-4.97;100.00;100454.00;2614866;31;20039;-49
2022/12/14 02:47:07;;;;;;;34.83;18.45;;;;;;;-4.93;100.00;100450.38;2613668;31;20031;-50
2022/12/14 02:49:48;;;;;;;;;;;;;;;-4.93;100.00;100457.41;2611948;36;20026;-51
2022/12/14 02:52:28;;;;;;;36.28;18.63;;;;;;;-5.00;100.00;100442.75;2615304;36;19955;-52
2022/12/14 02:55:03;;;;;;;36.13;18.73;;;;;;;-5.03;100.00;100443.69;2614713;36;20610;-54
2022/12/14 02:57:38;;;;;;;37.40;18.55;;;;;;;-5.00;100.00;100434.88;2615268;31;20030;-53
2022/12/14 03:00:08;;;;;;;38.70;18.70;;;;;;;-5.03;100.00;100441.06;2613366;36;20039;-49
2022/12/14 03:02:42;;;;;;;38.55;18.95;;;;;;;-5.07;100.00;100449.09;2612888;36;20023;-50
2022/12/14 03:05:11;;;;;;;37.65;19.40;;;;;;;-5.13;100.00;100443.09;2613537;36;20037;-54
2022/12/14 03:07:46;;;;;;;38.33;20.27;;;;;;;-5.13;100.00;100442.25;2614463;36;20034;-48
2022/12/14 03:10:27;;;;;;;38.13;18.80;;;;;;;-5.26;100.00;100433.03;2612179;36;20039;-55
2022/12/14 03:12:59;;;;;;;38.60;18.27;;;;;;;-5.32;100.00;100431.44;2614342;36;20034;-52
2022/12/14 03:15:30;;;;;;;38.38;19.30;;;;;;;-5.36;100.00;100429.81;2615005;36;20034;-51
2022/12/14 03:18:08;;;;;;;34.30;18.00;;;;;;;-5.38;100.00;100435.13;2614760;36;20042;-55
2022/12/14 03:20:39;;;;;;;39.22;18.42;;;;;;;-5.50;100.00;100427.63;2614324;36;20035;-53
2022/12/14 03:23:11;;;;;;;38.17;18.83;;;;;;;-5.58;100.00;100429.59;2613965;31;20532;-54
2022/12/14 03:25:46;;;;;;;32.65;16.58;;;;;;;-5.72;100.00;100428.22;2613365;36;20030;-54
2022/12/14 03:28:18;;;;;;;39.33;18.42;;;;;;;-5.65;100.00;100429.78;2614059;31;20034;-49
2022/12/14 03:30:53;;;;;;;35.85;17.20;;;;;;;-5.57;100.00;100429.53;2614055;36;20122;-55
2022/12/14 03:33:29;;;;;;;32.22;17.48;;;;;;;-5.66;100.00;100424.56;2614929;31;20398;-50
2022/12/14 03:36:02;;;;;;;35.08;18.23;;;;;;;-5.76;100.00;100405.63;2614680;36;20045;-51
2022/12/14 03:38:36;;;;;;;30.85;16.80;;;;;;;-5.74;100.00;100402.94;2615121;31;20061;-52
2022/12/14 03:41:15;;;;;;;33.95;17.40;;;;;;;-5.82;100.00;100405.78;2615707;36;20034;-53
2022/12/14 03:43:55;;;;;;;36.28;18.27;;;;;;;-5.87;100.00;100405.09;2613009;36;20420;-52
2022/12/14 03:46:30;;;;;;;35.10;18.05;;;;;;;-6.02;100.00;100399.41;2613739;36;20026;-54
2022/12/14 03:49:14;;;;;;;33.55;17.77;;;;;;;-6.16;100.00;100396.28;2613030;36;20038;-53
2022/12/14 03:51:51;;;;;;;33.40;16.30;;;;;;;-6.18;100.00;100392.88;2615204;36;20092;-54
2022/12/14 03:54:25;;;;;;;34.47;17.50;;;;;;;-6.26;100.00;100392.19;2615053;36;20041;-53
2022/12/14 03:57:01;;;;;;;33.78;16.15;;;;;;;-6.30;100.00;100394.06;2613889;36;20023;-51
2022/12/14 03:59:35;;;;;;;30.50;16.55;;;;;;;-6.30;100.00;100388.81;2614975;36;20029;-53
2022/12/14 04:02:10;;;;;;;32.67;17.92;;;;;;;-6.39;100.00;100376.81;2614955;31;20038;-51
2022/12/14 04:04:48;;;;;;;35.83;17.60;;;;;;;-6.50;100.00;100375.38;2615384;36;20424;-57
2022/12/14 04:07:24;;;;;;;33.50;17.25;;;;;;;-6.42;100.00;100379.53;2615027;36;20030;-55
2022/12/14 04:09:58;;;;;;;34.00;17.67;;;;;;;-6.44;100.00;100376.06;2615440;36;20554;-49
2022/12/14 04:20:51;;;;;;;32.10;17.27;;;;;;;-6.82;100.00;100370.06;2614972;36;20069;-54
2022/12/14 04:26:08;;;;;;;31.08;16.05;;;;;;;-6.91;100.00;100372.91;2613391;31;20069;-50
2022/12/14 04:31:27;;;;;;;35.67;17.00;;;;;;;-6.90;100.00;100367.63;2614418;36;20547;-50
2022/12/14 04:34:01;;;;;;;34.20;17.15;;;;;;;-6.94;100.00;100370.38;2614370;36;20045;-56
2022/12/14 04:36:36;;;;;;;33.22;16.77;;;;;;;-6.93;100.00;100366.88;2610595;36;20056;-53
2022/12/14 04:39:09;;;;;;;37.83;17.20;;;;;;;-6.92;100.00;100371.16;2614267;36;20058;-52
2022/12/14 04:41:45;;;;;;;30.08;16.70;;;;;;;-6.99;100.00;100367.88;2614544;36;20447;-52
2022/12/14 04:44:19;;;;;;;38.65;16.45;;;;;;;-7.00;100.00;100365.28;2614500;36;20038;-53
2022/12/14 04:46:49;;;;;;;31.52;15.98;;;;;;;-6.93;100.00;100356.41;2613453;36;20035;-52
2022/12/14 04:49:21;;;;;;;32.17;16.25;;;;;;;-7.05;100.00;100358.41;2615375;36;20022;-49
2022/12/14 04:51:59;;;;;;;33.70;17.17;;;;;;;-7.06;100.00;100359.28;2612752;36;20038;-58
2022/12/14 04:54:31;;;;;;;32.05;16.55;;;;;;;-7.04;100.00;100364.47;2612545;31;20030;-53
2022/12/14 04:57:06;;;;;;;33.65;18.30;;;;;;;-7.06;100.00;100359.28;2613622;36;20042;-51
2022/12/14 04:59:35;;;;;;;37.92;18.00;;;;;;;-6.91;100.00;100355.44;2612327;36;20666;-56
2022/12/14 05:02:11;;;;;;;34.22;17.83;;;;;;;-6.93;100.00;100359.00;2613787;31;20041;-56
2022/12/14 05:04:53;;;;;;;35.35;17.65;;;;;;;-6.93;100.00;100351.16;2613871;36;20038;-53
2022/12/14 05:07:34;;;;;;;31.50;17.38;;;;;;;-6.89;100.00;100347.53;2614135;36;20022;-53
2022/12/14 05:10:07;;;;;;;40.95;17.13;;;;;;;-6.91;100.00;100346.75;2610755;36;20455;-55
2022/12/14 05:12:44;;;;;;;30.73;16.35;;;;;;;-7.01;100.00;100347.88;2614179;36;20038;-55
2022/12/14 05:15:17;;;;;;;34.50;16.85;;;;;;;-6.98;100.00;100342.56;2614300;31;20439;-51
2022/12/14 05:17:45;;;;;;;37.00;18.67;;;;;;;-6.83;100.00;100338.69;2614022;36;20030;-58
2022/12/14 05:20:18;;;;;;;33.38;17.70;;;;;;;-6.95;100.00;100334.63;2615344;31;20030;-55
2022/12/14 05:22:50;;;;;;;35.60;17.08;;;;;;;-7.01;100.00;100337.41;2612303;36;20038;-53
2022/12/14 05:25:18;;;;;;;33.70;17.55;;;;;;;-6.97;100.00;100339.03;2610483;36;20034;-53
2022/12/14 05:27:47;;;;;;;36.17;17.55;;;;;;;-6.88;100.00;100333.56;2609036;31;20030;-54
2022/12/14 05:30:15;;;;;;;30.33;16.25;;;;;;;-6.97;100.00;100334.66;2613337;36;20442;-51
2022/12/14 05:32:44;;;;;;;29.88;16.02;;;;;;;-7.16;100.00;100339.47;2613810;36;20023;-53
2022/12/14 05:35:13;;;;;;;28.98;15.90;;;;;;;-7.15;100.00;100335.13;2614799;36;20061;-49
2022/12/14 05:37:42;;;;;;;31.23;17.10;;;;;;;-7.11;100.00;100340.25;2613563;36;20042;-51
2022/12/14 05:40:14;;;;;;;31.20;17.23;;;;;;;-7.10;100.00;100328.88;2614178;31;20420;-50
2022/12/14 05:42:42;;;;;;;33.47;16.17;;;;;;;-7.18;100.00;100335.19;2614616;36;20034;-52
2022/12/14 05:45:13;;;;;;;33.42;17.98;;;;;;;-7.29;100.00;100332.84;2614498;31;20031;-55
2022/12/14 05:47:41;;;;;;;31.80;16.42;;;;;;;-7.23;100.00;100332.69;2615311;36;20667;-54
2022/12/14 05:50:11;;;;;;;34.75;17.08;;;;;;;-7.27;100.00;100331.06;2614644;36;20029;-54
2022/12/14 05:52:39;;;;;;;32.80;16.83;;;;;;;-7.28;100.00;100329.31;2614749;36;20034;-48
2022/12/14 05:55:09;;;;;;;31.33;16.33;;;;;;;-7.38;100.00;100314.75;2614111;36;20041;-53
2022/12/14 05:57:39;;;;;;;30.25;16.35;;;;;;;-7.48;100.00;100322.81;2614167;36;20038;-52
2022/12/14 06:00:09;;;;;;;37.22;17.50;;;;;;;-7.46;100.00;100315.78;2610615;36;20057;-48
2022/12/14 06:02:38;;;;;;;33.88;17.08;;;;;;;-7.37;100.00;100313.88;2612435;36;20149;-50
2022/12/14 06:05:07;;;;;;;33.85;16.63;;;;;;;-7.38;100.00;100309.53;2613892;36;20041;-54
2022/12/14 06:07:35;;;;;;;39.70;18.13;;;;;;;-7.40;100.00;100313.03;2613848;36;20042;-54
2022/12/14 06:10:03;;;;;;;38.47;18.52;;;;;;;-7.40;100.00;100310.41;2614650;36;20039;-46
2022/12/14 06:12:32;;;;;;;37.53;18.15;;;;;;;-7.28;100.00;100308.41;2614139;36;20022;-54
2022/12/14 06:15:03;;;;;;;39.78;17.27;;;;;;;-7.26;100.00;100309.22;2613948;36;20026;-56
2022/12/14 06:17:31;;;;;;;34.88;19.08;;;;;;;-7.30;100.00;100300.59;2615264;31;20154;-52
2022/12/14 06:19:59;;;;;;;33.70;17.33;;;;;;;-7.36;100.00;100306.00;2614296;36;20042;-50
2022/12/14 06:22:28;;;;;;;34.45;17.08;;;;;;;-7.42;100.00;100295.66;2614763;31;20035;-53
2022/12/14 06:24:56;;;;;;;32.08;16.65;;;;;;;-7.40;100.00;100302.56;2614894;36;20041;-47
2022/12/14 06:27:24;;;;;;;34.47;16.35;;;;;;;-7.43;100.00;100293.97;2615276;36;20058;-54
2022/12/14 06:29:53;;;;;;;30.75;15.82;;;;;;;-7.48;100.00;100294.06;2614583;36;20039;-54
2022/12/14 06:32:24;;;;;;;30.20;15.45;;;;;;;-7.45;100.00;100291.38;2609932;36;20563;-56
2022/12/14 06:34:53;;;;;;;38.08;17.65;;;;;;;-7.35;100.00;100297.22;2614546;36;20053;-55
2022/12/14 06:37:21;;;;;;;35.20;17.25;;;;;;;-6.63;100.00;100301.53;2615240;36;20029;-48
2022/12/14 06:39:49;;;;;;;33.35;16.95;;;;;;;-6.58;100.00;100294.41;2613257;36;20034;-53
2022/12/14 06:42:17;;;;;;;35.17;16.20;;;;;;;-6.90;100.00;100298.75;2609859;36;20029;-51
2022/12/14 06:44:46;;;;;;;33.58;15.75;;;;;;;-7.16;100.00;100302.88;2614462;36;20062;-52
2022/12/14 06:47:14;;;;;;;33.80;17.77;;;;;;;-7.43;100.00;100305.25;2614681;36;20145;-51
2022/12/14 06:49:45;;;;;;;35.10;16.23;;;;;;;-7.38;100.00;100304.31;2614716;31;20526;-51
2022/12/14 06:52:13;;;;;;;32.92;17.15;;;;;;;-7.44;100.00;100308.75;2611471;36;20045;-50
2022/12/14 06:54:42;;;;;;;30.48;16.85;;;;;;;-7.44;100.00;100313.13;2609585;36;20038;-56
2022/12/14 06:57:10;;;;;;;38.00;17.45;;;;;;;-7.34;100.00;100317.25;2614795;31;20038;-54
2022/12/14 06:59:38;;;;;;;30.20;14.95;;;;;;;-7.39;100.00;100316.50;2615327;36;20058;-47
2022/12/14 07:02:07;;;;;;;31.35;15.65;;;;;;;-7.34;100.00;100319.03;2614438;31;20022;-50
2022/12/14 07:04:36;;;;;;;31.60;16.92;;;;;;;-7.36;100.00;100306.00;2603309;36;20041;-52
2022/12/14 07:07:07;;;;;;;35.38;17.17;;;;;;;-7.17;100.00;100314.22;2613744;36;20030;-54
2022/12/14 07:09:35;;;;;;;29.77;14.65;;;;;;;-7.11;100.00;100318.44;2612273;36;20038;-52
2022/12/14 07:12:03;;;;;;;41.72;16.55;;;;;;;-7.22;100.00;100319.56;2613234;36;20034;-52
2022/12/14 07:14:32;;;;;;;30.45;15.10;;;;;;;-7.34;100.00;100316.41;2612931;36;20034;-52
2022/12/14 07:17:00;;;;;;;30.75;15.50;;;;;;;-7.34;100.00;100311.19;2614065;36;20409;-53
2022/12/14 07:19:28;;;;;;;31.67;15.48;;;;;;;-7.40;100.00;100310.41;2614306;36;20057;-54
2022/12/14 07:22:01;;;;;;;34.42;15.95;;;;;;;-7.35;100.00;100314.69;2614165;36;20042;-52
2022/12/14 07:24:32;;;;;;;35.30;16.55;;;;;;;-7.33;100.00;100310.25;2613911;31;20146;-54
2022/12/14 07:27:00;;;;;;;37.17;17.45;;;;;;;-7.42;100.00;100317.44;2613311;36;20579;-52
2022/12/14 07:29:28;;;;;;;38.28;17.95;;;;;;;-7.48;100.00;100317.59;2613714;36;20502;-52
2022/12/14 07:31:56;;;;;;;36.03;16.45;;;;;;;-7.41;100.00;100324.38;2613448;36;20045;-50
2022/12/14 07:34:25;;;;;;;38.05;17.35;;;;;;;-7.32;100.00;100317.22;2611464;36;20030;-54
2022/12/14 07:36:54;;;;;;;31.55;15.45;;;;;;;-7.38;100.00;100306.91;2612422;36;20045;-48
2022/12/14 07:39:28;;;;;;;;;;;;;;;-7.45;100.00;100311.41;2614137;31;20034;-54
2022/12/14 07:41:59;;;;;;;30.05;16.10;;;;;;;-7.53;100.00;100313.38;2614000;31;19957;-53
2022/12/14 07:44:28;;;;;;;38.55;18.08;;;;;;;-7.58;100.00;100316.09;2612807;36;20046;-51
2022/12/14 07:46:56;;;;;;;38.42;17.45;;;;;;;-7.58;100.00;100311.72;2613161;36;20027;-51
2022/12/14 07:49:24;;;;;;;35.05;17.38;;;;;;;-7.51;100.00;100308.94;2612952;36;20038;-50
2022/12/14 07:51:54;;;;;;;36.53;18.35;;;;;;;-7.52;100.00;100308.09;2614203;36;20030;-57
2022/12/14 07:54:23;;;;;;;;;;;;;;;-7.45;100.00;100309.69;2613785;36;20053;-58
2022/12/14 07:56:52;;;;;;;41.55;18.35;;;;;;;-7.50;100.00;100313.28;2612687;36;19957;-54
2022/12/14 07:59:23;;;;;;;39.08;18.70;;;;;;;-7.52;100.00;100317.66;2614370;36;20547;-51
2022/12/14 08:01:54;;;;;;;39.92;17.65;;;;;;;-7.49;100.00;100330.66;2612926;36;20034;-53
2022/12/14 08:04:23;;;;;;;36.08;17.85;;;;;;;-7.60;100.00;100323.06;2609278;36;20072;-55
2022/12/14 08:06:51;;;;;;;36.20;17.83;;;;;;;-7.70;100.00;100318.94;2607257;36;20440;-52
2022/12/14 08:09:20;;;;;;;42.45;19.98;;;;;;;-7.60;100.00;100330.91;2613437;36;20034;-48
2022/12/14 08:11:49;;;;;;;41.73;19.60;;;;;;;-7.57;100.00;100329.13;2613739;36;20037;-53
2022/12/14 08:14:18;;;;;;;;;;;;;;;-7.54;100.00;100322.09;2615238;31;20057;-53
2022/12/14 08:16:51;;;;;;;37.22;19.45;;;;;;;-7.61;100.00;100326.56;2612642;36;19992;-55
2022/12/14 08:19:20;;;;;;;32.28;17.27;;;;;;;-7.63;100.00;100325.75;2614697;36;20034;-55
2022/12/14 08:21:49;;;;;;;36.95;19.15;;;;;;;-7.64;100.00;100321.41;2614656;36;20030;-51
2022/12/14 08:24:18;;;;;;;42.55;20.15;;;;;;;-7.52;100.00;100323.78;2614268;36;20038;-52
2022/12/14 08:26:46;;;;;;;37.67;19.17;;;;;;;-7.62;100.00;100325.72;2612844;36;20046;-53
2022/12/14 08:29:15;;;;;;;40.75;19.10;;;;;;;-7.60;100.00;100336.16;2613443;36;20042;-52
2022/12/14 08:31:43;;;;;;;40.28;19.73;;;;;;;-7.55;100.00;100331.69;2613839;31;20038;-54
2022/12/14 08:34:15;;;;;;;36.40;18.67;;;;;;;-7.51;100.00;100333.31;2613967;36;20031;-54
2022/12/14 08:36:43;;;;;;;43.10;20.35;;;;;;;-7.43;100.00;100334.00;2613507;36;20582;-54
2022/12/14 08:39:12;;;;;;;41.20;20.92;;;;;;;-7.34;100.00;100334.72;2612565;36;20030;-48
2022/12/14 08:41:40;;;;;;;39.85;19.25;;;;;;;-7.42;100.00;100333.13;2614403;36;20129;-53
2022/12/14 08:44:09;;;;;;;42.15;21.38;;;;;;;-7.44;100.00;100334.06;2614511;31;20518;-49
2022/12/14 08:46:39;;;;;;;41.17;20.55;;;;;;;-7.32;100.00;100340.75;2610815;36;21328;-55
2022/12/14 08:49:07;;;;;;;37.33;20.17;;;;;;;-7.35;100.00;100338.22;2605935;36;20724;-55
2022/12/14 08:51:39;;;;;;;40.30;19.52;;;;;;;-7.23;100.00;100343.13;2605613;36;20030;-50
2022/12/14 08:54:07;;;;;;;38.25;19.88;;;;;;;-7.29;100.00;100338.91;2605299;36;20038;-48
2022/12/14 08:56:35;;;;;;;34.40;19.85;;;;;;;-7.28;100.00;100339.78;2605040;36;20038;-50
2022/12/14 08:59:04;;;;;;;37.17;19.52;;;;;;;-7.28;100.00;100329.31;2605963;31;21147;-51
2022/12/14 09:01:32;;;;;;;41.28;21.15;;;;;;;-7.17;100.00;100337.75;2604546;36;20030;-54
2022/12/14 09:04:05;;;;;;;44.63;23.45;;;;;;;-6.76;100.00;100333.25;2605598;36;20447;-50
2022/12/14 09:06:38;;;;;;;44.22;22.88;;;;;;;-6.61;100.00;100339.88;2597746;36;20195;-54
2022/12/14 09:09:08;;;;;;;45.22;22.95;;;;;;;-6.60;100.00;100338.94;2605958;36;20043;-49
2022/12/14 09:11:36;;;;;;;;;;;;;;;-6.56;100.00;100343.22;2606274;31;20034;-50
2022/12/14 09:14:04;;;;;;;42.22;22.35;;;;;;;-6.42;100.00;100340.25;2604992;36;19947;-54
2022/12/14 09:16:33;;;;;;;49.63;23.73;;;;;;;-6.16;100.00;100346.50;2605792;31;20034;-50
2022/12/14 09:19:02;;;;;;;43.25;21.27;;;;;;;-6.05;100.00;100354.94;2600772;36;20034;-53
2022/12/14 09:21:30;;;;;;;39.77;21.13;;;;;;;-6.05;100.00;100357.56;2605398;36;20038;-53
2022/12/14 09:24:01;;;;;;;39.38;19.83;;;;;;;-5.86;100.00;100357.88;2605427;36;20299;-50
2022/12/14 09:26:29;;;;;;;42.85;20.05;;;;;;;-5.78;100.00;100355.00;2606730;31;20498;-52
2022/12/14 09:28:59;;;;;;;40.57;19.43;;;;;;;-5.80;100.00;100362.03;2606111;36;20034;-55
2022/12/14 09:31:29;;;;;;;36.08;18.30;;;;;;;-5.62;100.00;100355.44;2605378;36;20057;-53
2022/12/14 09:33:58;;;;;;;36.50;17.90;;;;;;;-5.47;100.00;100351.47;2605431;36;20539;-54
2022/12/14 09:36:28;;;;;;;35.05;17.45;;;;;;;-5.53;100.00;100354.28;2606861;31;20034;-53
2022/12/14 09:38:58;;;;;;;35.20;17.55;;;;;;;-5.50;100.00;100349.78;2605296;36;20041;-52
2022/12/14 09:41:38;;;;;;;;;;;;;;;-5.45;100.00;100344.41;2605404;36;20089;-50
2022/12/14 09:44:16;;;;;;;34.15;16.70;;;;;;;-5.42;100.00;100356.56;2605792;36;19957;-51
2022/12/14 09:46:54;;;;;;;32.65;16.08;;;;;;;-5.41;100.00;100347.81;2605063;36;20045;-56
2022/12/14 09:49:29;;;;;;;36.55;15.15;;;;;;;-5.41;100.00;100345.19;2606702;31;20034;-51
2022/12/14 09:52:00;;;;;;;37.53;17.25;;;;;;;-5.26;100.00;100349.09;2605319;36;20555;-53
2022/12/14 09:54:32;;;;;;;35.40;15.93;;;;;;;-4.91;100.00;100353.19;2605570;31;20038;-53
2022/12/14 09:57:10;;;;;;;31.35;14.38;;;;;;;-4.66;100.00;100353.25;2605894;36;20035;-55
2022/12/14 09:59:39;;;;;;;28.20;13.23;;;;;;;-4.57;100.00;100344.19;2606145;36;20149;-51
2022/12/14 10:02:42;;;;;;;29.57;13.47;;;;;;;-4.43;100.00;100354.22;2607456;36;20422;-50
2022/12/14 10:05:32;;;;;;;28.92;12.70;;;;;;;-4.44;100.00;100347.25;2603893;36;20563;-54
2022/12/14 10:08:08;;;;;;;25.92;12.85;;;;;;;-4.42;100.00;100346.31;2605775;36;20045;-55
2022/12/14 10:10:46;;;;;;;27.00;12.25;;;;;;;-4.35;100.00;100346.09;2605827;36;20422;-54
2022/12/14 10:13:26;;;;;;;28.70;13.15;;;;;;;-4.38;100.00;100338.31;2605613;36;20034;-51
2022/12/14 10:16:01;;;;;;;23.67;11.95;;;;;;;-4.37;100.00;100329.50;2605141;31;20041;-51
2022/12/14 10:18:54;;;;;;;25.42;11.75;;;;;;;-4.40;100.00;100335.75;2598794;36;20030;-52
2022/12/14 10:21:27;;;;;;;26.38;12.80;;;;;;;-4.24;100.00;100318.50;2606356;36;20026;-52
2022/12/14 10:23:59;;;;;;;24.70;11.93;;;;;;;-4.11;100.00;100321.56;2603378;36;20053;-53
2022/12/14 10:26:34;;;;;;;24.20;11.82;;;;;;;-4.06;100.00;100316.13;2597381;36;20873;-58
2022/12/14 10:29:13;;;;;;;26.83;12.55;;;;;;;-4.12;100.00;100317.22;2605435;36;20034;-49
2022/12/14 10:31:49;;;;;;;28.45;12.63;;;;;;;-4.05;100.00;100309.94;2605115;36;20448;-54
2022/12/14 10:34:21;;;;;;;27.60;12.20;;;;;;;-3.94;100.00;100313.03;2605161;36;20035;-55
2022/12/14 10:36:55;;;;;;;26.08;11.95;;;;;;;-4.01;100.00;100314.16;2606157;31;20089;-53
2022/12/14 10:39:35;;;;;;;26.50;12.90;;;;;;;-4.05;100.00;100312.56;2605886;36;20547;-52
2022/12/14 10:42:13;;;;;;;29.15;13.02;;;;;;;-3.95;100.00;100328.88;2605002;36;20030;-55
2022/12/14 10:44:51;;;;;;;25.33;12.93;;;;;;;-3.87;100.00;100317.16;2605503;36;20030;-54
2022/12/14 10:47:28;;;;;;;26.88;11.85;;;;;;;-3.94;100.00;100310.41;2604993;36;20030;-56
2022/12/14 10:50:07;;;;;;;25.15;11.50;;;;;;;-3.84;100.00;100302.16;2605873;36;20045;-54
2022/12/14 10:52:40;;;;;;;26.60;12.57;;;;;;;-3.82;100.00;100301.19;2605680;31;20042;-57
2022/12/14 10:55:17;;;;;;;25.00;12.82;;;;;;;-3.82;100.00;100301.19;2604953;36;20037;-54
2022/12/14 10:57:46;;;;;;;30.05;11.68;;;;;;;-3.65;100.00;100297.94;2605359;36;20045;-58
2022/12/14 11:00:19;;;;;;;21.90;10.90;;;;;;;-3.71;100.00;100295.50;2606549;31;20113;-48
2022/12/14 11:02:52;;;;;;;25.55;11.65;;;;;;;-3.61;100.00;100288.97;2604784;36;20038;-51
2022/12/14 11:05:37;;;;;;;25.67;11.45;;;;;;;-3.44;100.00;100276.97;2605810;31;20502;-51
2022/12/14 11:08:06;;;;;;;25.35;11.30;;;;;;;-3.42;100.00;100290.91;2605366;36;20061;-55
2022/12/14 11:10:34;;;;;;;24.42;11.45;;;;;;;-3.35;100.00;100282.69;2605888;36;20038;-52
2022/12/14 11:13:06;;;;;;;23.60;11.35;;;;;;;-3.40;100.00;100284.66;2604430;36;20034;-57
2022/12/14 11:15:41;;;;;;;25.02;12.23;;;;;;;-3.25;100.00;100283.19;2605732;31;20394;-58
2022/12/14 11:18:30;;;;;;;23.73;12.65;;;;;;;-3.24;100.00;100287.53;2604389;36;20121;-53
2022/12/14 11:21:01;;;;;;;24.35;11.90;;;;;;;-3.12;100.00;100287.94;2604304;36;20031;-54
2022/12/14 11:23:31;;;;;;;24.35;11.10;;;;;;;-2.88;100.00;100291.34;2605137;36;20042;-56
2022/12/14 11:26:02;;;;;;;26.05;11.45;;;;;;;-2.72;100.00;100286.28;2597792;36;20062;-57
2022/12/14 11:28:34;;;;;;;32.65;11.15;;;;;;;-2.69;100.00;100292.25;2604343;36;20878;-54
2022/12/14 11:31:07;;;;;;;24.33;11.07;;;;;;;-2.46;100.00;100287.75;2605186;36;20439;-54
2022/12/14 11:33:41;;;;;;;24.67;11.30;;;;;;;-2.35;100.00;100284.69;2605020;36;20440;-51
2022/12/14 11:36:10;;;;;;;25.15;12.68;;;;;;;-2.32;100.00;100289.81;2597343;36;20431;-54
2022/12/14 11:38:39;;;;;;;27.77;12.73;;;;;;;-2.15;100.00;100289.03;2603830;36;20030;-52
2022/12/14 11:41:07;;;;;;;26.98;12.40;;;;;;;-2.10;100.00;100291.50;2604265;36;20428;-51